San Francisco, CA

11:59 PM PDT on October 25, 2014 (GMT -0700)
San Francisco International | Change Station
CLOSE
Current Station
Airport
Location: San Francisco,
Elevation: 16 ft
Nearby Weather Stations

Elev 16 ft 37.62 °N, 122.37 °W | Updated 7 minutes ago

Mostly Cloudy
Mostly Cloudy
63 °F
Feels Like 63 °F
N
5
Wind Variable Wind from West

Today
High -- | Low -- °F
--% Chance of Precip.
Yesterday
High -- | Low -- °F
Precip. -- in
7:27 AM 6:18 PM
Waxing Crescent, 6% visible
Pressure 30.15 in
Visibility 10.0 miles
Clouds Mostly Cloudy 1800 ft
Mostly Cloudy 2400 ft
Mostly Cloudy 9000 ft
Dew Point 57 °F
Humidity 82%
Rainfall 0.10 in
Snow Depth Not available.
UV 0 out of 12
Pollen .10 out of 12
Ozone Good
PM2.5 Good
Flu Activity Sporadic
SPECI KSFO 260652Z 26004KT 10SM BKN018 BKN024 BKN090 17/14 A3015 RMK AO2 $

More Conditions Fewer Conditions

Pressure 30.15 in
Visibility 10.0 miles
Clouds Mostly Cloudy 1800 ft
Mostly Cloudy 2400 ft
Mostly Cloudy 9000 ft
Dew Point 57 °F
Humidity 82%
Rainfall 0.10 in
Snow Depth Not available.
UV 0 out of 12
Pollen .10 out of 12
Ozone Good
PM2.5 Good
Flu Activity Sporadic
SPECI KSFO 260652Z 26004KT 10SM BKN018 BKN024 BKN090 17/14 A3015 RMK AO2 $

More Conditions Fewer Conditions

10-Day Weather Forecast

Almanac

Astronomy

Oct. 25, 2014 Rise Set
Actual Time 7:27 AM PDT 6:18 PM PDT
Civil Twilight 7:00 AM PDT 6:45 PM PDT
Nautical Twilight 6:30 AM PDT 7:16 PM PDT
Astronomical Twilight 5:59 AM PDT 7:46 PM PDT
Moon 9:10 AM PDT (10/25) 7:47 PM PDT (10/25)
Length of Visible Light 11h 44m
Length of Day
10h 51m
Tomorrow will be 2m 13s shorter.
Waxing Crescent, 6% of the Moon is Illuminated
Oct 26
Waxing Crescent
Oct 30
First Quarter
Nov 6
Full
Nov 14
Last Quarter
Nov 22
New

Community

WunderPhotos

Upload Photos

1,765,117 photos uploaded!

Nearby

Air Quality

  Air Quality AQ Index Pollutant
Yesterday Good
OZONE
Yesterday Good
PM2.5
Current Good
PM2.5
Current Good
OZONE
Saturday Good
OZONE
Sunday Good
OZONE
Monday Good
PM2.5
Tuesday Good
PM2.5
Wednesday Moderate
PM2.5

Snow Depth

Station Depth Elevation
Carson Pass 1 in 8500 ft
Blue Lakes 0 in 8000 ft
Echo Peak 3 in 7800 ft
Ebbetts Pass 3 in 8700 ft
Rubicon #2 1 in 7500 ft

Earthquake Activity

City Distance Mag. Time & Date
Antioch, California 43 miles 2.7 6:42 AM PDT
2014-10-25
Deer Park, California 62 miles 2.8 6:40 AM PDT
2014-10-25
Coalinga, California 153 miles 2.5 11:01 PM PDT
2014-10-24
Minimum magnitude displayed is 2.5.

Coastal Water Temperatures

Place Temperature
No Stations Reporting

Nearby Weather Stations